createdAt,value
2017-11-23T00:00:59.627Z,15.18
2017-11-23T00:02:02.255Z,15.52
2017-11-23T00:03:04.727Z,15.02
2017-11-23T00:04:08.005Z,15.13
2017-11-23T00:05:10.524Z,14.55
2017-11-23T00:06:12.999Z,15.82
2017-11-23T00:07:15.489Z,15.40
2017-11-23T00:08:18.572Z,15.30
2017-11-23T00:09:21.039Z,14.80
2017-11-23T00:10:23.556Z,15.55
2017-11-23T00:11:26.797Z,15.85
2017-11-23T00:12:30.784Z,16.08
2017-11-23T00:13:33.253Z,16.02
2017-11-23T00:14:35.714Z,16.08
2017-11-23T00:15:38.326Z,15.18
2017-11-23T00:16:41.555Z,15.20
2017-11-23T00:17:44.049Z,16.05
2017-11-23T00:18:46.527Z,16.02
2017-11-23T00:19:49.748Z,17.25
2017-11-23T00:20:52.212Z,15.23
2017-11-23T00:21:54.703Z,15.70
2017-11-23T00:22:57.933Z,14.68
2017-11-23T00:24:00.400Z,14.93
2017-11-23T00:25:03.536Z,14.80
2017-11-23T00:26:06.006Z,16.23
2017-11-23T00:27:08.600Z,15.23
2017-11-23T00:28:11.101Z,14.65
2017-11-23T00:29:14.343Z,14.40
2017-11-23T00:30:17.608Z,15.20
2017-11-23T00:31:20.080Z,15.30
2017-11-23T00:32:22.534Z,15.07
2017-11-23T00:33:25.822Z,15.50
2017-11-23T00:34:28.333Z,15.18
2017-11-23T00:35:30.843Z,13.55
2017-11-23T00:36:33.383Z,14.75
2017-11-23T00:37:35.859Z,15.05
2017-11-23T00:38:38.682Z,14.48
2017-11-23T00:39:42.660Z,14.90
2017-11-23T00:40:45.882Z,15.15
2017-11-23T00:41:48.350Z,14.05
2017-11-23T00:42:51.555Z,13.40
2017-11-23T00:43:54.892Z,14.38
2017-11-23T00:44:57.387Z,14.27
2017-11-23T00:45:59.858Z,16.25
2017-11-23T00:47:02.326Z,14.48
2017-11-23T00:48:04.786Z,14.20
2017-11-23T00:49:07.273Z,14.65
2017-11-23T00:50:09.736Z,14.43
2017-11-23T00:51:12.192Z,14.38
2017-11-23T00:52:15.435Z,14.40
2017-11-23T00:53:17.974Z,14.30
2017-11-23T00:54:20.479Z,14.07
2017-11-23T00:55:23.702Z,16.27
2017-11-23T00:56:26.307Z,14.70
2017-11-23T00:57:28.796Z,13.82
2017-11-23T00:58:31.262Z,15.52
2017-11-23T00:59:33.958Z,15.50
2017-11-23T01:00:36.429Z,14.50
2017-11-23T01:01:38.901Z,14.65
2017-11-23T01:02:41.361Z,14.90
2017-11-23T01:03:43.819Z,15.20
2017-11-23T01:04:47.093Z,15.77
2017-11-23T01:05:49.627Z,16.33
2017-11-23T01:06:52.111Z,15.10
2017-11-23T01:07:55.434Z,15.10
2017-11-23T01:08:57.895Z,14.50
2017-11-23T01:10:01.167Z,15.02
2017-11-23T01:11:03.680Z,15.52
2017-11-23T01:12:06.154Z,14.63
2017-11-23T01:13:08.644Z,13.90
2017-11-23T01:14:11.112Z,14.98
2017-11-23T01:15:13.608Z,14.90
2017-11-23T01:16:16.065Z,14.43
2017-11-23T01:17:18.531Z,14.30
2017-11-23T01:18:21.004Z,13.85
2017-11-23T01:19:23.464Z,14.45
2017-11-23T01:20:26.757Z,15.73
2017-11-23T01:21:29.264Z,13.75
2017-11-23T01:22:36.668Z,13.65
2017-11-23T01:23:39.953Z,13.15
2017-11-23T01:24:42.421Z,14.75
2017-11-23T01:25:44.976Z,13.70
2017-11-23T01:26:47.499Z,13.02
2017-11-23T01:27:49.975Z,12.82
2017-11-23T01:28:52.438Z,15.15
2017-11-23T01:29:55.668Z,13.60
2017-11-23T01:30:59.034Z,14.85
2017-11-23T01:32:02.276Z,13.02
2017-11-23T01:33:05.535Z,12.70
2017-11-23T01:34:08.348Z,14.70
2017-11-23T01:35:10.899Z,14.02
2017-11-23T01:36:13.396Z,13.38
2017-11-23T01:37:16.635Z,13.55
2017-11-23T01:38:19.884Z,13.30
2017-11-23T01:39:23.108Z,12.70
2017-11-23T01:40:26.479Z,13.62
2017-11-23T01:41:28.956Z,12.32
2017-11-23T01:42:31.425Z,11.68
2017-11-23T01:43:33.894Z,12.45
2017-11-23T01:44:36.377Z,11.80
2017-11-23T01:45:38.868Z,12.35
2017-11-23T01:46:41.464Z,12.00
2017-11-23T01:47:44.784Z,12.57
2017-11-23T01:48:47.259Z,11.75
2017-11-23T01:49:49.719Z,11.32
2017-11-23T01:50:53.020Z,10.90
2017-11-23T01:51:55.521Z,11.75
2017-11-23T01:52:57.984Z,11.50
2017-11-23T01:54:01.215Z,11.35
2017-11-23T01:55:03.787Z,11.25
2017-11-23T01:56:06.313Z,12.05
2017-11-23T01:57:08.818Z,11.18
2017-11-23T01:58:12.048Z,11.07
2017-11-23T01:59:14.554Z,11.32
2017-11-23T02:00:17.022Z,10.70
2017-11-23T02:01:20.284Z,11.68
2017-11-23T02:02:22.784Z,11.15
2017-11-23T02:03:26.024Z,10.63
2017-11-23T02:04:29.327Z,11.18
2017-11-23T02:05:31.784Z,10.68
2017-11-23T02:06:35.007Z,11.50
2017-11-23T02:07:37.506Z,11.48
2017-11-23T02:08:39.980Z,11.43
2017-11-23T02:09:42.451Z,10.98
2017-11-23T02:10:44.933Z,10.68
2017-11-23T02:11:48.160Z,10.68
2017-11-23T02:12:50.653Z,12.07
2017-11-23T02:13:53.169Z,10.88
2017-11-23T02:14:55.631Z,10.60
2017-11-23T02:15:58.100Z,10.38
2017-11-23T02:17:00.564Z,10.65
2017-11-23T02:18:03.116Z,10.38
2017-11-23T02:19:05.641Z,11.20
2017-11-23T02:20:08.881Z,11.40
2017-11-23T02:21:11.350Z,10.55
2017-11-23T02:22:13.880Z,11.57
2017-11-23T02:23:16.429Z,11.12
2017-11-23T02:24:18.928Z,10.70
2017-11-23T02:25:21.396Z,10.10
2017-11-23T02:26:23.860Z,11.00
2017-11-23T02:27:26.535Z,10.75
2017-11-23T02:28:29.041Z,10.00
2017-11-23T02:29:31.513Z,9.70
2017-11-23T02:30:33.975Z,9.32
2017-11-23T02:31:36.493Z,9.95
2017-11-23T02:32:38.981Z,10.10
2017-11-23T02:33:41.476Z,10.23
2017-11-23T02:34:43.945Z,10.45
2017-11-23T02:35:47.178Z,10.85
2017-11-23T02:36:49.686Z,10.43
2017-11-23T02:37:52.264Z,9.77
2017-11-23T02:38:54.759Z,10.25
2017-11-23T02:39:57.218Z,10.30
2017-11-23T02:40:59.771Z,9.60
2017-11-23T02:42:02.272Z,10.15
2017-11-23T02:43:04.746Z,9.35
2017-11-23T02:44:07.237Z,10.77
2017-11-23T02:45:09.708Z,9.75
2017-11-23T02:46:12.181Z,10.73
2017-11-23T02:47:14.635Z,9.73
2017-11-23T02:48:17.105Z,10.13
2017-11-23T02:49:20.351Z,9.85
2017-11-23T02:50:23.609Z,9.93
2017-11-23T02:51:26.106Z,10.05
2017-11-23T02:52:29.334Z,9.43
2017-11-23T02:53:31.793Z,9.73
2017-11-23T02:54:34.316Z,9.93
2017-11-23T02:55:36.849Z,9.57
2017-11-23T02:56:39.337Z,10.60
2017-11-23T02:57:41.804Z,10.68
2017-11-23T02:58:44.301Z,9.27
2017-11-23T02:59:47.538Z,9.55
2017-11-23T03:00:50.771Z,9.40
2017-11-23T03:01:53.224Z,9.60
2017-11-23T03:02:55.700Z,9.10
2017-11-23T03:16:11.891Z,8.80
2017-11-23T03:17:14.392Z,8.65
2017-11-23T03:18:16.872Z,9.27
2017-11-23T03:19:19.380Z,8.68
2017-11-23T03:20:21.881Z,8.43
2017-11-23T03:21:24.344Z,8.45
2017-11-23T03:22:26.812Z,8.20
2017-11-23T03:23:29.291Z,8.88
2017-11-23T03:24:33.301Z,8.57
2017-11-23T03:25:35.790Z,8.73
2017-11-23T03:26:38.347Z,8.20
2017-11-23T03:27:40.818Z,8.30
2017-11-23T03:28:43.300Z,8.38
2017-11-23T03:29:45.936Z,8.25
2017-11-23T03:30:48.400Z,8.40
2017-11-23T03:31:50.859Z,8.30
2017-11-23T03:32:54.118Z,8.00
2017-11-23T03:33:56.605Z,8.18
2017-11-23T03:34:59.087Z,7.35
2017-11-23T03:36:01.536Z,7.80
2017-11-23T03:37:04.054Z,8.00
2017-11-23T03:38:06.540Z,7.68
2017-11-23T03:39:09.027Z,8.00
2017-11-23T03:40:11.504Z,8.80
2017-11-23T03:41:13.967Z,7.72
2017-11-23T03:42:16.465Z,7.20
2017-11-23T03:43:18.947Z,8.45
2017-11-23T03:44:22.183Z,8.60
2017-11-23T03:45:25.419Z,7.80
2017-11-23T03:46:28.647Z,7.65
2017-11-23T03:47:31.144Z,7.90
2017-11-23T03:48:33.637Z,8.18
2017-11-23T03:49:36.102Z,7.85
2017-11-23T03:50:38.586Z,7.85
2017-11-23T03:51:41.058Z,7.70
2017-11-23T03:52:43.544Z,7.25
2017-11-23T03:53:46.040Z,7.62
2017-11-23T03:54:48.575Z,6.93
2017-11-23T03:55:51.832Z,7.35
2017-11-23T03:56:54.304Z,8.10
2017-11-23T03:57:56.839Z,7.68
2017-11-23T03:58:59.332Z,8.18
2017-11-23T04:00:01.855Z,7.30
2017-11-23T04:02:07.046Z,7.30
2017-11-23T04:03:10.357Z,7.12
2017-11-23T04:04:13.604Z,6.93
2017-11-23T04:05:16.212Z,6.78
2017-11-23T04:06:18.681Z,7.05
2017-11-23T04:07:21.213Z,7.28
2017-11-23T04:08:23.680Z,7.43
2017-11-23T04:09:26.149Z,7.18
2017-11-23T04:10:28.659Z,6.60
2017-11-23T04:11:31.130Z,7.10
2017-11-23T04:12:34.367Z,6.62
2017-11-23T04:13:37.619Z,7.10
2017-11-23T04:14:40.859Z,7.20
2017-11-23T04:15:44.143Z,6.50
2017-11-23T04:16:46.667Z,7.75
2017-11-23T04:17:49.144Z,7.47
2017-11-23T04:18:51.613Z,6.87
2017-11-23T04:19:54.079Z,6.82
2017-11-23T04:20:57.364Z,7.65
2017-11-23T04:21:59.868Z,6.60
2017-11-23T04:23:02.327Z,7.15
2017-11-23T04:24:04.781Z,7.65
2017-11-23T04:25:07.364Z,6.68
2017-11-23T04:26:09.824Z,7.45
2017-11-23T04:27:12.329Z,7.00
2017-11-23T04:28:14.791Z,6.93
2017-11-23T04:29:17.260Z,6.22
2017-11-23T04:30:19.739Z,7.37
2017-11-23T04:31:22.231Z,6.80
2017-11-23T04:32:24.853Z,6.97
2017-11-23T04:33:27.332Z,6.90
2017-11-23T04:34:29.830Z,6.93
2017-11-23T04:35:32.289Z,6.85
2017-11-23T04:36:34.772Z,7.55
2017-11-23T04:37:37.249Z,7.00
2017-11-23T04:38:40.508Z,6.55
2017-11-23T04:39:42.975Z,6.57
2017-11-23T04:40:45.437Z,6.78
2017-11-23T04:41:48.682Z,6.40
2017-11-23T04:42:51.230Z,6.30
2017-11-23T04:43:53.721Z,6.25
2017-11-23T04:44:56.268Z,6.12
2017-11-23T04:45:59.509Z,7.00
2017-11-23T04:47:02.740Z,6.30
2017-11-23T04:48:05.200Z,6.00
2017-11-23T04:49:07.675Z,6.32
2017-11-23T04:50:10.195Z,6.00
2017-11-23T04:51:12.671Z,6.07
2017-11-23T04:52:15.156Z,5.87
2017-11-23T04:53:17.739Z,6.30
2017-11-23T04:54:20.244Z,5.78
2017-11-23T04:55:22.793Z,5.90
2017-11-23T04:56:25.290Z,6.28
2017-11-23T04:57:28.546Z,6.45
2017-11-23T04:58:31.071Z,5.90
2017-11-23T04:59:33.589Z,6.10
2017-11-23T05:00:36.123Z,6.12
2017-11-23T05:01:38.608Z,6.20
2017-11-23T05:02:41.091Z,5.47
2017-11-23T05:03:43.564Z,5.45
2017-11-23T05:04:46.846Z,5.70
2017-11-23T05:05:49.348Z,6.32
2017-11-23T05:06:51.809Z,5.80
2017-11-23T05:07:54.301Z,5.97
2017-11-23T05:08:57.536Z,5.57
2017-11-23T05:10:00.809Z,6.15
2017-11-23T05:11:03.306Z,6.00
2017-11-23T05:12:05.772Z,5.20
2017-11-23T05:13:08.277Z,5.70
2017-11-23T05:14:10.754Z,6.15
2017-11-23T05:15:13.336Z,5.65
2017-11-23T05:16:16.156Z,5.97
2017-11-23T05:17:18.671Z,5.47
2017-11-23T05:18:21.890Z,5.32
2017-11-23T05:19:24.364Z,5.85
2017-11-23T05:20:26.841Z,6.32
2017-11-23T05:21:30.074Z,5.90
2017-11-23T05:22:32.647Z,5.87
2017-11-23T05:23:35.118Z,5.28
2017-11-23T05:24:37.691Z,5.20
2017-11-23T05:25:40.169Z,5.20
2017-11-23T05:26:43.422Z,5.10
2017-11-23T05:27:45.999Z,4.90
2017-11-23T05:28:48.505Z,5.60
2017-11-23T05:29:51.551Z,5.30
2017-11-23T05:30:54.020Z,6.20
2017-11-23T05:31:56.599Z,5.03
2017-11-23T05:32:59.060Z,6.07
2017-11-23T05:34:01.689Z,5.40
2017-11-23T05:35:04.147Z,5.25
2017-11-23T05:36:06.604Z,5.75
2017-11-23T05:37:09.119Z,5.32
2017-11-23T05:38:12.398Z,5.90
2017-11-23T05:39:14.857Z,4.75
2017-11-23T05:40:17.355Z,5.15
2017-11-23T05:41:19.848Z,5.10
2017-11-23T05:42:22.306Z,4.95
2017-11-23T05:43:24.776Z,4.80
2017-11-23T05:44:28.099Z,5.32
2017-11-23T05:45:30.567Z,4.97
2017-11-23T05:46:33.073Z,4.47
2017-11-23T05:47:36.334Z,4.50
2017-11-23T05:48:39.311Z,4.20
2017-11-23T05:49:41.799Z,5.15
2017-11-23T05:50:44.319Z,4.55
2017-11-23T05:51:46.793Z,4.85
2017-11-23T05:52:49.312Z,4.85
2017-11-23T05:53:51.794Z,4.68
2017-11-23T05:54:54.251Z,4.95
2017-11-23T05:55:56.749Z,4.55
2017-11-23T05:56:59.213Z,4.68
2017-11-23T05:58:02.196Z,4.60
2017-11-23T05:59:04.666Z,4.70
2017-11-23T06:00:07.176Z,4.25
2017-11-23T06:01:09.687Z,4.15
2017-11-23T06:02:12.212Z,4.87
2017-11-23T06:03:16.099Z,4.40
2017-11-23T06:04:18.638Z,4.45
2017-11-23T06:05:21.140Z,4.35
2017-11-23T06:06:23.647Z,4.80
2017-11-23T06:07:26.180Z,4.57
2017-11-23T06:08:28.646Z,4.87
2017-11-23T06:09:31.140Z,5.50
2017-11-23T06:10:33.633Z,5.30
2017-11-23T06:11:36.095Z,4.80
2017-11-23T06:12:38.559Z,4.78
2017-11-23T06:13:41.023Z,4.90
2017-11-23T06:14:43.477Z,4.68
2017-11-23T06:15:46.001Z,4.90
2017-11-23T06:16:48.471Z,5.10
2017-11-23T06:17:51.697Z,5.10
2017-11-23T06:18:54.613Z,4.93
2017-11-23T06:19:57.099Z,4.80
2017-11-23T06:20:59.571Z,5.12
2017-11-23T06:22:02.040Z,4.53
2017-11-23T06:23:04.579Z,4.32
2017-11-23T06:24:07.044Z,5.22
2017-11-23T06:25:09.550Z,4.90
2017-11-23T06:26:12.159Z,4.85
2017-11-23T06:27:14.616Z,4.55
2017-11-23T06:28:17.164Z,4.62
2017-11-23T06:29:20.086Z,5.20
2017-11-23T06:30:22.707Z,5.10
2017-11-23T06:31:25.278Z,5.15
2017-11-23T06:32:28.935Z,4.60
2017-11-23T06:33:31.415Z,5.05
2017-11-23T06:34:33.871Z,5.12
2017-11-23T06:35:36.354Z,4.80
2017-11-23T06:36:38.849Z,5.20
2017-11-23T06:37:41.360Z,4.80
2017-11-23T06:38:43.824Z,5.15
2017-11-23T06:39:46.357Z,5.22
2017-11-23T06:40:48.856Z,4.80
2017-11-23T06:41:51.319Z,5.18
2017-11-23T06:42:53.788Z,4.80
2017-11-23T06:43:56.249Z,4.85
2017-11-23T06:44:58.732Z,5.00
2017-11-23T06:46:01.187Z,4.65
2017-11-23T06:47:03.682Z,4.90
2017-11-23T06:48:06.949Z,4.82
2017-11-23T06:49:09.435Z,4.90
2017-11-23T06:50:12.688Z,5.40
2017-11-23T06:51:15.146Z,4.45
2017-11-23T06:52:17.609Z,4.40
2017-11-23T06:53:20.091Z,5.00
2017-11-23T06:54:23.368Z,4.68
2017-11-23T06:55:25.889Z,4.37
2017-11-23T06:56:28.470Z,4.72
2017-11-23T06:57:30.949Z,4.85
2017-11-23T06:58:33.700Z,4.60
2017-11-23T06:59:36.708Z,3.95
2017-11-23T07:00:39.243Z,4.55
2017-11-23T07:01:41.751Z,4.70
2017-11-23T07:02:45.455Z,4.90
2017-11-23T07:03:48.694Z,4.60
2017-11-23T07:04:51.915Z,4.85
2017-11-23T07:05:54.437Z,4.53
2017-11-23T07:06:56.914Z,4.70
2017-11-23T07:07:59.384Z,5.22
2017-11-23T07:09:02.653Z,4.70
2017-11-23T07:10:05.871Z,5.50
2017-11-23T07:11:08.328Z,4.40
2017-11-23T07:12:10.846Z,4.80
2017-11-23T07:13:14.205Z,4.82
2017-11-23T07:14:16.683Z,5.20
2017-11-23T07:15:19.304Z,5.03
2017-11-23T07:16:21.758Z,4.93
2017-11-23T07:17:25.020Z,5.22
2017-11-23T07:18:27.512Z,5.43
2017-11-23T07:19:29.993Z,4.68
2017-11-23T07:20:32.516Z,4.85
2017-11-23T07:21:35.016Z,5.47
2017-11-23T07:22:37.516Z,4.80
2017-11-23T07:23:39.984Z,5.07
2017-11-23T07:24:42.519Z,4.95
2017-11-23T07:25:45.014Z,5.20
2017-11-23T07:26:48.311Z,4.78
2017-11-23T07:27:50.867Z,4.82
2017-11-23T07:28:54.106Z,5.05
2017-11-23T07:29:57.352Z,5.32
2017-11-23T07:31:00.593Z,4.72
2017-11-23T07:32:03.058Z,5.35
2017-11-23T07:33:05.913Z,5.30
2017-11-23T07:34:08.525Z,5.00
2017-11-23T07:35:11.012Z,5.10
2017-11-23T07:36:14.384Z,4.72
2017-11-23T07:37:16.889Z,4.72
2017-11-23T07:38:19.364Z,4.80
2017-11-23T07:39:21.839Z,5.37
2017-11-23T07:40:25.098Z,5.12
2017-11-23T07:41:27.583Z,5.05
2017-11-23T07:42:30.035Z,4.60
2017-11-23T07:43:32.534Z,4.85
2017-11-23T07:44:35.006Z,5.40
2017-11-23T07:45:37.529Z,5.00
2017-11-23T07:46:40.062Z,6.15
2017-11-23T07:47:42.565Z,5.20
2017-11-23T07:48:45.141Z,5.18
2017-11-23T07:49:47.630Z,4.53
2017-11-23T07:50:50.144Z,4.97
2017-11-23T07:51:52.636Z,5.00
2017-11-23T07:52:56.716Z,4.32
2017-11-23T07:54:00.020Z,4.87
2017-11-23T07:55:03.281Z,5.30
2017-11-23T07:56:05.765Z,5.35
2017-11-23T07:57:08.226Z,4.87
2017-11-23T07:58:10.682Z,4.87
2017-11-23T07:59:13.915Z,4.68
2017-11-23T08:00:17.187Z,5.20
2017-11-23T08:01:19.680Z,4.62
2017-11-23T08:02:22.945Z,4.95
2017-11-23T08:03:25.436Z,5.00
2017-11-23T08:04:27.908Z,5.10
2017-11-23T08:05:30.374Z,4.55
2017-11-23T08:06:32.857Z,4.70
2017-11-23T08:07:35.401Z,4.68
2017-11-23T08:08:38.648Z,4.50
2017-11-23T08:09:41.113Z,4.70
2017-11-23T08:10:44.382Z,4.90
2017-11-23T08:11:47.611Z,5.80
2017-11-23T08:12:50.095Z,5.05
2017-11-23T08:13:52.558Z,4.90
2017-11-23T08:14:55.804Z,4.87
2017-11-23T08:15:59.189Z,4.65
2017-11-23T08:17:01.652Z,4.47
2017-11-23T08:18:04.259Z,4.50
2017-11-23T08:19:06.719Z,4.30
2017-11-23T08:20:09.980Z,4.65
2017-11-23T08:21:12.454Z,4.57
2017-11-23T08:22:15.759Z,4.78
2017-11-23T08:23:18.290Z,4.87
2017-11-23T08:24:20.773Z,5.37
2017-11-23T08:25:24.149Z,4.20
2017-11-23T08:26:26.628Z,5.25
2017-11-23T08:27:29.097Z,4.40
2017-11-23T08:28:31.634Z,4.78
2017-11-23T08:29:34.205Z,4.15
2017-11-23T08:30:36.945Z,4.85
2017-11-23T08:31:39.406Z,5.43
2017-11-23T08:32:42.043Z,4.87
2017-11-23T08:33:44.521Z,4.93
2017-11-23T08:34:46.976Z,4.60
2017-11-23T08:35:49.490Z,4.40
2017-11-23T08:36:52.804Z,4.87
2017-11-23T08:37:55.281Z,5.20
2017-11-23T08:38:57.763Z,4.80
2017-11-23T08:40:00.255Z,4.50
2017-11-23T08:41:02.708Z,4.25
2017-11-23T08:42:05.214Z,5.00
2017-11-23T08:43:07.748Z,4.60
2017-11-23T08:44:10.381Z,4.50
2017-11-23T08:45:12.959Z,4.65
2017-11-23T08:46:15.476Z,4.40
2017-11-23T08:47:17.983Z,4.57
2017-11-23T08:48:20.478Z,4.90
2017-11-23T08:49:22.960Z,5.00
2017-11-23T08:50:25.438Z,5.35
2017-11-23T08:51:28.752Z,5.10
2017-11-23T08:52:34.790Z,5.40
2017-11-23T08:53:37.276Z,4.60
2017-11-23T08:54:45.575Z,4.70
2017-11-23T08:55:49.831Z,5.65
2017-11-23T08:56:52.296Z,5.20
2017-11-23T08:57:55.586Z,5.25
2017-11-23T08:58:58.099Z,5.12
2017-11-23T09:00:00.559Z,4.40
2017-11-23T09:01:03.024Z,5.03
2017-11-23T09:02:05.523Z,5.20
2017-11-23T09:03:09.458Z,5.35
2017-11-23T09:04:11.936Z,5.28
2017-11-23T09:05:14.435Z,4.97
2017-11-23T09:06:16.900Z,5.35
2017-11-23T09:07:19.382Z,4.95
2017-11-23T09:08:22.726Z,4.55
2017-11-23T09:09:25.265Z,4.62
2017-11-23T09:10:28.518Z,4.85
2017-11-23T09:11:31.059Z,5.40
2017-11-23T09:12:39.374Z,5.40
2017-11-23T09:13:42.623Z,4.68
2017-11-23T09:14:45.863Z,5.53
2017-11-23T09:15:49.215Z,4.20
2017-11-23T09:16:52.452Z,5.20
2017-11-23T09:17:55.765Z,5.00
2017-11-23T09:18:58.249Z,4.37
2017-11-23T09:20:00.771Z,4.75
2017-11-23T09:21:03.255Z,4.37
2017-11-23T09:22:05.878Z,4.18
2017-11-23T09:23:09.285Z,4.90
2017-11-23T09:24:11.806Z,5.03
2017-11-23T09:25:14.263Z,5.05
2017-11-23T09:26:17.159Z,4.60
2017-11-23T09:27:19.661Z,4.85
2017-11-23T09:28:22.891Z,4.80
2017-11-23T09:29:25.351Z,4.87
2017-11-23T09:30:27.920Z,4.60
2017-11-23T09:31:30.386Z,4.07
2017-11-23T09:32:33.647Z,4.43
2017-11-23T09:33:36.172Z,4.10
2017-11-23T09:34:38.675Z,4.62
2017-11-23T09:35:42.057Z,4.10
2017-11-23T09:36:44.522Z,5.00
2017-11-23T09:37:47.001Z,4.50
2017-11-23T09:38:49.481Z,4.40
2017-11-23T09:39:51.955Z,4.28
2017-11-23T09:40:54.430Z,4.62
2017-11-23T09:41:57.689Z,4.53
2017-11-23T09:43:00.924Z,4.80
2017-11-23T09:44:04.140Z,4.62
2017-11-23T09:45:06.813Z,4.80
2017-11-23T09:46:09.289Z,4.20
2017-11-23T09:47:11.793Z,4.57
2017-11-23T09:48:14.338Z,4.62
2017-11-23T09:49:16.803Z,4.78
2017-11-23T09:50:20.052Z,4.85
2017-11-23T09:51:22.512Z,5.00
2017-11-23T09:52:25.032Z,4.20
2017-11-23T09:53:27.552Z,4.47
2017-11-23T09:54:30.089Z,4.60
2017-11-23T09:55:32.579Z,4.78
2017-11-23T09:56:35.597Z,4.43
2017-11-23T09:57:38.167Z,4.43
2017-11-23T09:58:40.747Z,4.82
2017-11-23T09:59:43.203Z,4.32
2017-11-23T10:00:45.724Z,4.40
2017-11-23T10:01:48.176Z,5.03
2017-11-23T10:02:50.641Z,4.47
2017-11-23T10:03:53.095Z,4.93
2017-11-23T10:04:55.572Z,4.53
2017-11-23T10:05:58.078Z,4.70
2017-11-23T10:07:00.552Z,4.37
2017-11-23T10:08:03.795Z,4.37
2017-11-23T10:09:07.043Z,4.72
2017-11-23T10:10:10.296Z,4.57
2017-11-23T10:11:12.784Z,4.20
2017-11-23T10:12:15.255Z,4.47
2017-11-23T10:13:17.813Z,3.92
2017-11-23T10:14:26.038Z,4.12
2017-11-23T10:15:28.572Z,3.70
2017-11-23T10:16:31.037Z,3.97
2017-11-23T10:17:33.508Z,4.10
2017-11-23T10:18:35.988Z,3.58
2017-11-23T10:19:38.570Z,3.60
2017-11-23T10:20:41.044Z,3.72
2017-11-23T10:21:43.542Z,3.60
2017-11-23T10:22:46.006Z,3.53
2017-11-23T10:23:49.244Z,3.85
2017-11-23T10:24:51.711Z,3.22
2017-11-23T10:25:54.221Z,3.50
2017-11-23T10:26:56.684Z,3.20
2017-11-23T10:27:59.148Z,3.37
2017-11-23T10:29:01.738Z,3.55
2017-11-23T10:30:04.204Z,3.40
2017-11-23T10:31:07.468Z,3.03
2017-11-23T10:32:10.042Z,3.15
2017-11-23T10:33:12.562Z,3.22
2017-11-23T10:34:15.028Z,3.40
2017-11-23T10:35:18.259Z,3.40
2017-11-23T10:36:20.989Z,3.87
2017-11-23T10:37:29.094Z,3.55
2017-11-23T10:38:31.569Z,3.92
2017-11-23T10:39:34.184Z,3.40
2017-11-23T10:40:36.712Z,3.42
2017-11-23T10:41:39.244Z,3.70
2017-11-23T10:42:43.166Z,3.47
2017-11-23T10:43:45.644Z,3.75
2017-11-23T10:44:48.875Z,4.05
2017-11-23T10:45:52.152Z,3.42
2017-11-23T10:46:54.620Z,3.50
2017-11-23T10:47:57.200Z,3.42
2017-11-23T10:48:59.684Z,3.10
2017-11-23T10:50:02.187Z,3.65
2017-11-23T10:51:04.760Z,3.50
2017-11-23T10:52:08.041Z,3.55
2017-11-23T10:53:10.511Z,3.20
2017-11-23T10:54:12.999Z,3.37
2017-11-23T10:55:15.492Z,3.40
2017-11-23T10:56:17.992Z,3.75
2017-11-23T10:57:20.496Z,3.30
2017-11-23T10:58:22.945Z,3.70
2017-11-23T10:59:26.220Z,3.35
2017-11-23T11:00:28.815Z,3.70
2017-11-23T11:01:32.104Z,3.55
2017-11-23T11:02:34.589Z,3.53
2017-11-23T11:03:37.852Z,3.37
2017-11-23T11:04:40.328Z,3.28
2017-11-23T11:05:42.947Z,3.30
2017-11-23T11:06:45.408Z,3.30
2017-11-23T11:07:47.957Z,3.67
2017-11-23T11:08:50.433Z,3.80
2017-11-23T11:09:52.921Z,3.20
2017-11-23T11:10:55.405Z,3.33
2017-11-23T11:11:58.654Z,3.28
2017-11-23T11:13:02.089Z,3.60
2017-11-23T11:14:04.602Z,3.15
2017-11-23T11:15:07.086Z,3.30
2017-11-23T11:16:09.632Z,3.42
2017-11-23T11:17:12.131Z,3.58
2017-11-23T11:18:14.643Z,3.78
2017-11-23T11:19:17.127Z,3.62
2017-11-23T11:20:19.601Z,3.85
2017-11-23T11:21:22.076Z,3.50
2017-11-23T11:22:24.636Z,3.75
2017-11-23T11:23:27.187Z,3.70
2017-11-23T11:24:29.709Z,3.17
2017-11-23T11:25:32.219Z,3.50
2017-11-23T11:26:34.798Z,3.72
2017-11-23T11:27:37.349Z,3.37
2017-11-23T11:28:39.931Z,3.67
2017-11-23T11:29:42.421Z,3.28
2017-11-23T11:30:45.711Z,3.55
2017-11-23T11:31:48.167Z,3.28
2017-11-23T11:32:50.663Z,3.33
2017-11-23T11:33:53.154Z,3.67
2017-11-23T11:34:55.624Z,3.40
2017-11-23T11:35:58.101Z,3.40
2017-11-23T11:37:00.569Z,3.40
2017-11-23T11:38:03.052Z,3.40
2017-11-23T11:39:05.527Z,3.58
2017-11-23T11:40:08.043Z,3.40
2017-11-23T11:41:10.520Z,3.10
2017-11-23T11:42:12.975Z,3.47
2017-11-23T11:43:15.646Z,3.10
2017-11-23T11:44:18.833Z,3.15
2017-11-23T11:45:21.337Z,3.40
2017-11-23T11:46:23.813Z,3.55
2017-11-23T11:47:26.339Z,3.47
2017-11-23T11:48:28.831Z,3.65
2017-11-23T11:49:31.306Z,3.95
2017-11-23T11:50:34.574Z,3.40
2017-11-23T11:51:37.842Z,3.50
2017-11-23T11:52:40.693Z,3.42
2017-11-23T11:53:44.097Z,3.72
2017-11-23T11:54:47.279Z,3.80
2017-11-23T11:55:49.761Z,3.40
2017-11-23T11:56:53.131Z,3.70
2017-11-23T11:57:55.612Z,4.03
2017-11-23T11:58:58.863Z,3.35
2017-11-23T12:00:02.100Z,3.47
2017-11-23T12:01:04.632Z,3.72
2017-11-23T12:02:08.078Z,3.50
2017-11-23T12:03:11.313Z,3.28
2017-11-23T12:04:15.316Z,3.00
2017-11-23T12:05:17.787Z,3.53
2017-11-23T12:06:20.264Z,3.37
2017-11-23T12:07:22.756Z,2.92
2017-11-23T12:08:25.988Z,3.05
2017-11-23T12:09:28.460Z,3.30
2017-11-23T12:10:30.959Z,3.60
2017-11-23T12:11:33.904Z,3.50
2017-11-23T12:12:36.364Z,3.42
2017-11-23T12:13:38.827Z,3.78
2017-11-23T12:14:42.124Z,3.20
2017-11-23T12:15:56.655Z,3.33
2017-11-23T12:18:48.572Z,3.90
2017-11-23T12:20:03.084Z,3.33
2017-11-23T12:21:26.432Z,3.50
2017-11-23T12:22:49.803Z,4.80
2017-11-23T12:24:11.672Z,3.80
2017-11-23T12:25:26.830Z,3.40
2017-11-23T12:26:29.436Z,3.15
2017-11-23T12:27:43.889Z,3.53
2017-11-23T12:28:58.314Z,3.22
2017-11-23T12:30:03.971Z,3.20
2017-11-23T12:31:06.468Z,3.80
2017-11-23T12:32:08.998Z,3.70
2017-11-23T12:33:11.515Z,3.60
2017-11-23T12:34:13.987Z,3.45
2017-11-23T12:35:16.490Z,3.75
2017-11-23T12:36:19.072Z,4.12
2017-11-23T12:37:21.654Z,4.22
2017-11-23T12:38:24.103Z,3.22
2017-11-23T12:39:27.347Z,3.95
2017-11-23T12:40:30.720Z,3.83
2017-11-23T12:41:33.366Z,4.20
2017-11-23T12:42:35.859Z,3.42
2017-11-23T12:43:38.329Z,3.85
2017-11-23T12:44:40.787Z,2.90
2017-11-23T12:45:43.266Z,3.53
2017-11-23T12:46:45.767Z,3.40
2017-11-23T12:47:48.289Z,3.72
2017-11-23T12:48:50.812Z,3.55
2017-11-23T12:49:54.178Z,3.87
2017-11-23T12:50:56.664Z,3.40
2017-11-23T12:51:59.946Z,3.90
2017-11-23T12:53:02.408Z,3.17
2017-11-23T12:54:04.878Z,3.30
2017-11-23T12:55:07.339Z,3.45
2017-11-23T12:56:09.807Z,3.55
2017-11-23T12:57:13.067Z,3.80
2017-11-23T12:58:16.293Z,3.05
2017-11-23T12:59:19.544Z,3.55
2017-11-23T13:00:22.791Z,3.70
2017-11-23T13:01:26.024Z,3.70
2017-11-23T13:02:29.288Z,3.65
2017-11-23T13:03:31.745Z,3.37
2017-11-23T13:04:34.242Z,3.40
2017-11-23T13:05:36.708Z,3.15
2017-11-23T13:06:39.179Z,3.08
2017-11-23T13:07:41.663Z,3.20
2017-11-23T13:08:44.155Z,3.25
2017-11-23T13:09:47.176Z,3.53
2017-11-23T13:10:49.644Z,3.70
2017-11-23T13:11:52.144Z,3.55
2017-11-23T13:12:54.656Z,3.55
2017-11-23T13:13:57.124Z,3.42
2017-11-23T13:14:59.691Z,3.80
2017-11-23T13:16:02.184Z,3.35
2017-11-23T13:17:04.764Z,3.20
2017-11-23T13:18:07.282Z,3.20
2017-11-23T13:19:10.528Z,3.30
2017-11-23T13:20:13.038Z,3.33
2017-11-23T13:21:15.729Z,3.25
2017-11-23T13:22:18.207Z,3.53
2017-11-23T13:23:21.278Z,3.30
2017-11-23T13:24:23.773Z,3.00
2017-11-23T13:25:26.271Z,3.10
2017-11-23T13:26:29.528Z,3.10
2017-11-23T13:27:31.979Z,3.33
2017-11-23T13:28:34.448Z,3.62
2017-11-23T13:29:36.969Z,3.70
2017-11-23T13:30:39.467Z,3.40
2017-11-23T13:31:41.958Z,3.40
2017-11-23T13:32:44.447Z,2.95
2017-11-23T13:33:47.318Z,3.10
2017-11-23T13:34:49.836Z,2.65
2017-11-23T13:35:52.365Z,3.50
2017-11-23T13:36:54.874Z,2.53
2017-11-23T13:37:58.119Z,2.70
2017-11-23T13:39:01.364Z,3.40
2017-11-23T13:40:04.602Z,3.00
2017-11-23T13:41:07.068Z,3.20
2017-11-23T13:42:09.570Z,2.78
2017-11-23T13:43:12.041Z,3.35
2017-11-23T13:44:15.037Z,2.97
2017-11-23T13:45:17.508Z,3.10
2017-11-23T13:46:19.976Z,3.00
2017-11-23T13:47:22.468Z,2.80
2017-11-23T13:48:24.938Z,2.90
2017-11-23T13:49:27.427Z,2.72
2017-11-23T13:50:30.689Z,3.37
2017-11-23T13:51:33.920Z,2.55
2017-11-23T13:52:37.192Z,3.25
2017-11-23T13:53:39.672Z,2.70
2017-11-23T13:54:42.899Z,3.33
2017-11-23T13:55:45.419Z,3.20
2017-11-23T13:56:48.006Z,3.05
2017-11-23T13:57:50.518Z,3.03
2017-11-23T13:58:53.792Z,3.33
2017-11-23T13:59:56.256Z,2.95
2017-11-23T14:00:58.767Z,3.10
2017-11-23T14:02:01.352Z,3.10
2017-11-23T14:03:03.840Z,2.90
2017-11-23T14:04:07.127Z,2.78
2017-11-23T14:05:09.589Z,2.75
2017-11-23T14:06:12.168Z,3.12
2017-11-23T14:07:14.634Z,3.42